Time;durP1;ratioP1;P1;durP2;ratioP2;P2;SDS_P1;SDS_P2;PMS_P1;PMS_P2;Temp;Humidity;BMP_temperature;BMP_pressure;BME280_temperature;BME280_humidity;BME280_pressure;Samples;Min_cycle;Max_cycle;Signal;HPM_P1;HPM_P2
2021/04/22 00:00:26;;;;;;;6.65;2.95;;;21.60;63.00;;;;;;5078368;28;20096;-70
2021/04/22 00:02:53;;;;;;;7.13;3.05;;;21.60;63.00;;;;;;5079825;28;20019;-70
2021/04/22 00:05:32;;;;;;;7.47;2.97;;;21.50;63.00;;;;;;5078009;28;20091;-70
2021/04/22 00:07:59;;;;;;;10.50;2.95;;;21.50;63.00;;;;;;5077678;28;20064;-70
2021/04/22 00:10:43;;;;;;;11.57;3.72;;;21.50;63.00;;;;;;5080190;28;20026;-70
2021/04/22 00:13:12;;;;;;;6.03;3.20;;;21.50;63.10;;;;;;5080029;28;20091;-70
2021/04/22 00:15:39;;;;;;;8.23;3.17;;;21.50;63.00;;;;;;5077222;28;20071;-70
2021/04/22 00:18:07;;;;;;;5.88;3.13;;;21.50;63.10;;;;;;5077444;28;20113;-70
2021/04/22 00:20:37;;;;;;;7.88;2.90;;;21.40;63.20;;;;;;5079402;28;20028;-70
2021/04/22 00:23:08;;;;;;;9.45;3.35;;;21.40;63.20;;;;;;5080337;28;20505;-70
2021/04/22 00:25:35;;;;;;;9.20;3.85;;;21.40;63.20;;;;;;5079285;28;20028;-70
2021/04/22 00:28:04;;;;;;;12.27;3.40;;;21.40;63.40;;;;;;5078619;28;20060;-70
2021/04/22 00:30:31;;;;;;;7.53;3.17;;;21.40;63.40;;;;;;5080874;28;20048;-71
2021/04/22 00:32:57;;;;;;;7.93;3.30;;;21.40;63.50;;;;;;5077486;28;20069;-70
2021/04/22 00:35:24;;;;;;;9.70;3.80;;;21.40;63.70;;;;;;5080691;28;20009;-70
2021/04/22 00:37:51;;;;;;;6.57;3.10;;;21.40;63.90;;;;;;5072168;28;20095;-70
2021/04/22 00:40:21;;;;;;;7.50;4.20;;;21.40;64.40;;;;;;5079593;28;20035;-70
2021/04/22 00:42:48;;;;;;;6.25;3.80;;;21.40;64.30;;;;;;5077290;28;20066;-70
2021/04/22 00:45:16;;;;;;;8.60;3.97;;;21.40;64.60;;;;;;5079184;28;20383;-70
2021/04/22 00:47:43;;;;;;;10.25;4.40;;;21.40;64.70;;;;;;5077319;28;20145;-70
2021/04/22 00:50:25;;;;;;;12.30;3.88;;;21.40;64.90;;;;;;5076208;28;20013;-70
2021/04/22 00:52:56;;;;;;;11.43;4.50;;;21.40;65.10;;;;;;5078615;28;20137;-70
2021/04/22 00:55:24;;;;;;;13.95;4.05;;;21.40;65.20;;;;;;5075837;28;20020;-70
2021/04/22 00:57:50;;;;;;;8.25;3.63;;;21.40;65.30;;;;;;5079146;28;20027;-70
2021/04/22 01:00:21;;;;;;;10.52;4.82;;;21.40;65.40;;;;;;5078109;28;20020;-70
2021/04/22 01:02:48;;;;;;;6.30;4.05;;;21.40;65.60;;;;;;5077605;28;20028;-70
2021/04/22 01:05:19;;;;;;;8.85;3.78;;;21.40;65.70;;;;;;5076409;28;20091;-70
2021/04/22 01:07:46;;;;;;;10.27;4.63;;;21.30;65.70;;;;;;5076839;28;20128;-70
2021/04/22 01:10:16;;;;;;;9.52;4.68;;;21.30;65.80;;;;;;5079364;28;20099;-69
2021/04/22 01:12:42;;;;;;;12.55;4.60;;;21.30;65.90;;;;;;5076031;28;20116;-70
2021/04/22 01:15:21;;;;;;;13.50;5.40;;;21.30;66.00;;;;;;5078805;28;20035;-70
2021/04/22 01:17:47;;;;;;;10.80;4.97;;;21.30;66.00;;;;;;5075685;28;20048;-70
2021/04/22 01:20:20;;;;;;;9.98;4.97;;;21.30;66.20;;;;;;5079380;28;20016;-70
2021/04/22 01:22:49;;;;;;;12.23;5.05;;;21.30;66.20;;;;;;5077051;28;20033;-70
2021/04/22 01:25:20;;;;;;;8.85;4.68;;;21.30;66.30;;;;;;5076089;28;20093;-70
2021/04/22 01:27:46;;;;;;;10.57;4.80;;;21.30;66.30;;;;;;5077071;28;20035;-70
2021/04/22 01:30:21;;;;;;;7.65;5.15;;;21.30;66.40;;;;;;5080376;28;20067;-70
2021/04/22 01:32:48;;;;;;;9.65;4.55;;;21.30;66.30;;;;;;5077366;28;20013;-70
2021/04/22 01:35:18;;;;;;;10.75;5.38;;;21.30;66.20;;;;;;5076544;28;20012;-70
2021/04/22 01:37:46;;;;;;;10.98;4.32;;;21.30;66.10;;;;;;5075067;28;20028;-70
2021/04/22 01:40:13;;;;;;;10.27;3.58;;;21.20;65.80;;;;;;5079585;28;20096;-70
2021/04/22 01:42:40;;;;;;;6.65;3.58;;;21.30;65.60;;;;;;5077244;28;20039;-70
2021/04/22 01:45:09;;;;;;;8.00;3.50;;;21.30;65.30;;;;;;5078477;28;20066;-70
2021/04/22 01:47:36;;;;;;;9.70;3.60;;;21.20;65.00;;;;;;5077887;28;20395;-70
2021/04/22 01:50:07;;;;;;;9.98;3.95;;;21.20;64.70;;;;;;5077834;28;20016;-69
2021/04/22 01:52:34;;;;;;;11.40;5.35;;;21.20;64.50;;;;;;5081591;28;20094;-70
2021/04/22 01:55:03;;;;;;;8.70;4.20;;;21.20;64.30;;;;;;5062292;28;20023;-70
2021/04/22 01:57:30;;;;;;;8.38;4.97;;;21.10;64.20;;;;;;5082838;28;20028;-70
2021/04/22 01:59:56;;;;;;;8.10;5.10;;;21.20;64.10;;;;;;5081819;28;20017;-70
2021/04/22 02:02:23;;;;;;;6.50;4.25;;;21.10;64.10;;;;;;5081634;28;20029;-70
2021/04/22 02:04:49;;;;;;;7.20;4.95;;;21.10;63.90;;;;;;5077728;28;20033;-70
2021/04/22 02:07:16;;;;;;;7.75;4.32;;;21.10;63.90;;;;;;5084766;28;20058;-70
2021/04/22 02:09:42;;;;;;;7.75;3.97;;;21.00;63.80;;;;;;5080412;28;20037;-70
2021/04/22 02:12:09;;;;;;;7.20;4.15;;;21.00;63.80;;;;;;5080780;28;20116;-70
2021/04/22 02:14:35;;;;;;;6.78;4.35;;;21.00;63.80;;;;;;5082264;28;20031;-70
2021/04/22 02:17:03;;;;;;;5.63;3.90;;;21.00;63.80;;;;;;5078662;28;20134;-70
2021/04/22 02:19:29;;;;;;;7.63;4.53;;;21.00;63.70;;;;;;5081218;28;20016;-70
2021/04/22 02:21:56;;;;;;;7.28;4.32;;;21.00;63.70;;;;;;5079657;28;20024;-70
2021/04/22 02:24:22;;;;;;;7.40;4.60;;;20.90;63.60;;;;;;5081236;28;20063;-70
2021/04/22 02:26:49;;;;;;;7.57;4.80;;;20.90;63.60;;;;;;5077362;28;20066;-70
2021/04/22 02:29:15;;;;;;;7.07;4.40;;;20.90;63.50;;;;;;5084524;28;20020;-69
2021/04/22 02:31:42;;;;;;;5.43;4.25;;;20.90;63.40;;;;;;5081016;28;20487;-70
2021/04/22 02:34:08;;;;;;;4.55;3.72;;;20.90;63.40;;;;;;5081352;28;20635;-70
2021/04/22 02:36:35;;;;;;;6.05;4.05;;;20.90;64.00;;;;;;5082069;28;20567;-69
2021/04/22 02:39:01;;;;;;;5.13;3.72;;;20.90;63.30;;;;;;5082484;28;20012;-70
2021/04/22 02:41:28;;;;;;;4.88;3.55;;;20.90;63.20;;;;;;5084211;28;20213;-70
2021/04/22 02:43:54;;;;;;;4.53;3.83;;;20.80;63.10;;;;;;5078550;28;20021;-70
2021/04/22 02:46:21;;;;;;;4.03;3.35;;;20.80;63.10;;;;;;5083112;28;20551;-70
2021/04/22 02:48:47;;;;;;;4.45;4.05;;;20.80;63.10;;;;;;5080777;28;20383;-69
2021/04/22 02:51:14;;;;;;;3.53;2.70;;;20.80;63.10;;;;;;5080680;28;20076;-70
2021/04/22 02:53:40;;;;;;;3.45;3.05;;;20.80;63.10;;;;;;5083851;28;20547;-70
2021/04/22 02:56:07;;;;;;;3.97;3.15;;;20.80;63.20;;;;;;5080832;28;20029;-70
2021/04/22 02:58:34;;;;;;;4.95;3.97;;;20.80;63.20;;;;;;5083024;28;20067;-70
2021/04/22 03:01:00;;;;;;;3.97;3.58;;;20.70;63.20;;;;;;5078965;28;20017;-70
2021/04/22 03:03:27;;;;;;;4.05;3.38;;;20.70;63.40;;;;;;5082720;28;20028;-70
2021/04/22 03:05:57;;;;;;;4.90;3.60;;;20.70;63.40;;;;;;5080511;28;20035;-70
2021/04/22 03:08:24;;;;;;;4.20;3.42;;;20.70;63.50;;;;;;5075341;28;20016;-70
2021/04/22 03:10:52;;;;;;;4.03;3.65;;;20.70;63.60;;;;;;5080550;28;20032;-70
2021/04/22 03:13:18;;;;;;;8.65;6.57;;;20.70;63.70;;;;;;5077934;28;20031;-70
2021/04/22 03:15:45;;;;;;;9.07;7.18;;;20.70;63.70;;;;;;5079408;28;20028;-70
2021/04/22 03:18:12;;;;;;;8.63;6.53;;;20.70;63.70;;;;;;5078599;28;20028;-70
2021/04/22 03:20:39;;;;;;;6.55;5.65;;;20.70;63.70;;;;;;5079740;28;20147;-70
2021/04/22 03:23:07;;;;;;;4.90;4.32;;;20.70;63.80;;;;;;5078868;28;20032;-70
2021/04/22 03:25:33;;;;;;;3.92;3.53;;;20.70;63.80;;;;;;5081707;28;20495;-70
2021/04/22 03:28:00;;;;;;;4.22;3.50;;;20.70;63.70;;;;;;5078698;28;20041;-69
2021/04/22 03:30:30;;;;;;;4.03;3.40;;;20.70;63.70;;;;;;5081818;28;20083;-70
2021/04/22 03:32:57;;;;;;;4.55;3.63;;;20.60;63.70;;;;;;5080202;28;20020;-70
2021/04/22 03:35:24;;;;;;;3.08;2.78;;;20.60;64.30;;;;;;5080976;28;20016;-70
2021/04/22 03:37:51;;;;;;;2.45;2.25;;;20.60;63.70;;;;;;5079649;28;20025;-70
2021/04/22 03:40:18;;;;;;;2.67;2.45;;;20.60;63.60;;;;;;5078647;28;20053;-69
2021/04/22 03:42:45;;;;;;;2.47;2.28;;;20.60;63.60;;;;;;5082896;28;20089;-70
2021/04/22 03:45:14;;;;;;;1.75;1.50;;;20.60;63.70;;;;;;5080524;28;20078;-70
2021/04/22 03:47:41;;;;;;;4.97;3.80;;;20.60;63.70;;;;;;5082968;28;20600;-71
2021/04/22 03:50:09;;;;;;;7.13;6.03;;;20.50;63.70;;;;;;5078206;28;20047;-70
2021/04/22 03:52:36;;;;;;;6.38;5.55;;;20.50;63.70;;;;;;5078409;28;20020;-70
2021/04/22 03:55:05;;;;;;;5.00;3.95;;;20.50;63.60;;;;;;5080319;28;20099;-70
2021/04/22 03:57:32;;;;;;;3.80;3.40;;;20.50;63.60;;;;;;5080557;28;20057;-70
2021/04/22 03:59:58;;;;;;;4.80;3.35;;;20.50;63.60;;;;;;5081644;28;20047;-70
2021/04/22 04:02:25;;;;;;;4.05;3.25;;;20.50;63.60;;;;;;5082749;28;20024;-69
2021/04/22 04:04:52;;;;;;;4.32;3.22;;;20.50;63.70;;;;;;5078733;28;20020;-70
2021/04/22 04:07:18;;;;;;;5.50;3.30;;;20.50;63.70;;;;;;5079917;28;20029;-70
2021/04/22 04:09:45;;;;;;;4.55;2.95;;;20.50;63.80;;;;;;5078500;28;20031;-74
2021/04/22 04:12:11;;;;;;;4.38;3.28;;;20.40;63.70;;;;;;5080728;28;20020;-73
2021/04/22 04:14:38;;;;;;;4.40;3.42;;;20.40;63.80;;;;;;5079549;28;20028;-67
2021/04/22 04:17:05;;;;;;;4.20;3.35;;;20.50;63.90;;;;;;5079811;28;20024;-66
2021/04/22 04:19:33;;;;;;;6.93;5.40;;;20.40;63.90;;;;;;5080417;28;20380;-66
2021/04/22 04:22:00;;;;;;;9.32;7.30;;;20.40;64.00;;;;;;5079216;28;20056;-71
2021/04/22 04:24:27;;;;;;;9.10;7.22;;;20.40;64.00;;;;;;5082431;28;20020;-66
2021/04/22 04:26:53;;;;;;;8.18;4.50;;;20.40;64.10;;;;;;5078825;28;20468;-68
2021/04/22 04:29:20;;;;;;;7.18;4.55;;;20.40;64.10;;;;;;5082173;28;20810;-69
2021/04/22 04:31:47;;;;;;;6.18;4.80;;;20.40;64.10;;;;;;5078627;28;20086;-67
2021/04/22 04:34:14;;;;;;;6.80;4.15;;;20.40;64.10;;;;;;5081112;28;20051;-68
2021/04/22 04:36:45;;;;;;;5.97;4.00;;;20.40;64.10;;;;;;5080738;28;20446;-66
2021/04/22 04:39:14;;;;;;;5.95;4.35;;;20.40;64.20;;;;;;5081498;28;20421;-69
2021/04/22 04:41:41;;;;;;;5.90;4.10;;;20.40;64.20;;;;;;5084036;28;20059;-68
2021/04/22 04:44:09;;;;;;;5.78;3.88;;;20.40;64.30;;;;;;5081494;28;20529;-67
2021/04/22 04:46:37;;;;;;;6.43;4.00;;;20.40;64.40;;;;;;5081535;28;20028;-67
2021/04/22 04:49:06;;;;;;;4.93;4.00;;;20.30;64.40;;;;;;5078974;28;20016;-68
2021/04/22 04:51:32;;;;;;;4.28;3.65;;;20.30;64.50;;;;;;5078448;28;20372;-78
2021/04/22 04:53:59;;;;;;;6.40;3.75;;;20.30;64.50;;;;;;5080277;28;20099;-68
2021/04/22 04:56:26;;;;;;;4.40;3.53;;;20.30;64.60;;;;;;5082972;28;20023;-68
2021/04/22 04:58:53;;;;;;;6.93;3.25;;;20.40;64.70;;;;;;5079206;28;20016;-69
2021/04/22 05:01:21;;;;;;;3.95;3.30;;;20.30;64.80;;;;;;5081931;28;20094;-68
2021/04/22 05:03:47;;;;;;;3.75;3.00;;;20.30;64.80;;;;;;5085808;28;20016;-68
2021/04/22 05:06:14;;;;;;;4.15;3.17;;;20.30;64.80;;;;;;5083479;28;20573;-68
2021/04/22 05:08:41;;;;;;;4.68;3.67;;;20.30;64.80;;;;;;5081808;28;20372;-69
2021/04/22 05:11:07;;;;;;;4.13;3.15;;;20.30;64.80;;;;;;5082777;28;20028;-68
2021/04/22 05:13:34;;;;;;;3.92;3.28;;;20.30;64.90;;;;;;5082414;28;20063;-69
2021/04/22 05:16:00;;;;;;;5.18;3.30;;;20.30;65.60;;;;;;5079691;28;20023;-71
2021/04/22 05:18:28;;;;;;;2.85;2.58;;;20.20;64.90;;;;;;5083553;28;20028;-69
2021/04/22 05:20:55;;;;;;;3.85;3.00;;;20.20;65.00;;;;;;5081869;28;20033;-69
2021/04/22 05:23:21;;;;;;;3.80;2.33;;;20.20;65.00;;;;;;5081319;28;20024;-70
2021/04/22 05:25:49;;;;;;;3.33;2.85;;;20.30;65.00;;;;;;5082442;28;20456;-70
2021/04/22 05:28:16;;;;;;;2.60;2.08;;;20.20;65.00;;;;;;5076331;28;20405;-70
2021/04/22 05:30:44;;;;;;;2.90;2.17;;;20.20;65.00;;;;;;5075634;28;20044;-69
2021/04/22 05:33:11;;;;;;;2.58;2.10;;;20.20;65.10;;;;;;5077377;28;20074;-71
2021/04/22 05:35:38;;;;;;;3.10;2.40;;;20.20;65.00;;;;;;5079495;28;20012;-69
2021/04/22 05:38:05;;;;;;;4.00;2.33;;;20.20;65.10;;;;;;5079885;28;20378;-70
2021/04/22 05:40:32;;;;;;;4.10;2.75;;;20.20;65.10;;;;;;5078744;28;20089;-70
2021/04/22 05:42:59;;;;;;;5.20;2.78;;;20.20;65.20;;;;;;5080042;28;20023;-69
2021/04/22 05:45:26;;;;;;;2.47;2.13;;;20.20;65.20;;;;;;5078064;28;20025;-68
2021/04/22 05:47:53;;;;;;;3.10;2.33;;;20.20;65.20;;;;;;5083064;28;20071;-69
2021/04/22 05:50:21;;;;;;;3.08;2.70;;;20.20;65.20;;;;;;5083742;28;20026;-70
2021/04/22 05:52:48;;;;;;;2.80;2.60;;;20.20;65.30;;;;;;5078802;28;20020;-68
2021/04/22 05:55:16;;;;;;;4.57;3.38;;;20.20;65.50;;;;;;5078858;28;20032;-69
2021/04/22 05:57:42;;;;;;;3.47;2.92;;;20.20;65.60;;;;;;5079770;28;20070;-69
2021/04/22 06:00:13;;;;;;;4.68;2.33;;;20.20;65.70;;;;;;5079707;28;20066;-69
2021/04/22 06:02:40;;;;;;;4.60;2.65;;;20.20;65.80;;;;;;5077968;28;20028;-69
2021/04/22 06:05:07;;;;;;;3.42;2.80;;;20.10;65.80;;;;;;5080882;28;20016;-71
2021/04/22 06:07:33;;;;;;;4.88;3.63;;;20.20;66.00;;;;;;5075869;28;20044;-71
2021/04/22 06:10:00;;;;;;;4.57;3.50;;;20.20;66.10;;;;;;5079924;28;20055;-71
2021/04/22 06:12:27;;;;;;;4.60;4.05;;;20.10;66.10;;;;;;5079103;28;20025;-71
2021/04/22 06:14:53;;;;;;;4.65;3.55;;;20.20;66.30;;;;;;5081505;28;20014;-71
2021/04/22 06:17:20;;;;;;;5.90;3.95;;;20.20;66.40;;;;;;5079566;28;20145;-71
2021/04/22 06:19:46;;;;;;;4.68;3.63;;;20.20;66.50;;;;;;5077706;28;20024;-70
2021/04/22 06:22:13;;;;;;;5.57;3.38;;;20.20;66.60;;;;;;5080024;28;20853;-71
2021/04/22 06:24:39;;;;;;;3.58;3.17;;;20.20;67.30;;;;;;5079478;28;20028;-71
2021/04/22 06:27:06;;;;;;;5.25;3.65;;;20.20;66.60;;;;;;5078170;28;20101;-70
2021/04/22 06:29:33;;;;;;;6.72;4.18;;;20.20;66.70;;;;;;5078491;28;20391;-71
2021/04/22 06:31:59;;;;;;;7.20;4.50;;;20.20;66.80;;;;;;5079514;28;20131;-70
2021/04/22 06:34:26;;;;;;;7.72;3.92;;;20.20;66.80;;;;;;5080458;28;20108;-72
2021/04/22 06:36:53;;;;;;;13.93;6.63;;;20.20;66.90;;;;;;5079943;28;20376;-71
2021/04/22 06:39:19;;;;;;;9.95;5.18;;;20.20;66.90;;;;;;5083678;28;20030;-71
2021/04/22 06:41:46;;;;;;;6.45;4.30;;;20.30;67.10;;;;;;5084625;28;20024;-71
2021/04/22 06:44:12;;;;;;;4.38;2.72;;;20.30;67.10;;;;;;5080728;28;20022;-69
2021/04/22 06:46:39;;;;;;;7.68;4.18;;;20.30;67.10;;;;;;5081103;28;20034;-70
2021/04/22 06:49:06;;;;;;;6.18;4.13;;;20.30;67.10;;;;;;5078657;28;20063;-72
2021/04/22 06:51:32;;;;;;;4.80;3.40;;;20.30;67.10;;;;;;5081059;28;20025;-72
2021/04/22 06:53:59;;;;;;;6.38;3.83;;;20.30;67.10;;;;;;5079245;28;20021;-69
2021/04/22 06:56:25;;;;;;;4.28;3.45;;;20.30;67.20;;;;;;5085463;28;20478;-71
2021/04/22 06:58:53;;;;;;;5.55;4.10;;;20.30;67.20;;;;;;5079218;28;20032;-69
2021/04/22 07:01:20;;;;;;;4.25;3.60;;;20.30;67.30;;;;;;5082124;28;20466;-71
2021/04/22 07:03:46;;;;;;;5.63;3.70;;;20.30;67.30;;;;;;5077913;28;20107;-71
2021/04/22 07:06:13;;;;;;;3.97;3.30;;;20.30;67.40;;;;;;5082056;28;20064;-71
2021/04/22 07:08:41;;;;;;;5.45;3.60;;;20.30;67.50;;;;;;5080748;28;20016;-71
2021/04/22 07:11:08;;;;;;;6.35;3.85;;;20.30;67.50;;;;;;5077329;28;20055;-71
2021/04/22 07:13:35;;;;;;;4.05;3.47;;;20.30;67.60;;;;;;5082820;28;20024;-71
2021/04/22 07:16:02;;;;;;;6.95;3.92;;;20.40;67.70;;;;;;5079521;28;20775;-71
2021/04/22 07:18:28;;;;;;;9.45;4.20;;;20.40;68.40;;;;;;5082446;28;20472;-71
2021/04/22 07:20:55;;;;;;;7.45;4.68;;;20.40;67.70;;;;;;5081959;28;20058;-70
2021/04/22 07:23:22;;;;;;;6.05;4.35;;;20.40;67.70;;;;;;5083130;28;20102;-71
2021/04/22 07:25:50;;;;;;;6.38;3.85;;;20.50;67.80;;;;;;5081642;28;20066;-71
2021/04/22 07:28:17;;;;;;;4.90;4.25;;;20.50;67.80;;;;;;5079851;28;20077;-72
2021/04/22 07:30:44;;;;;;;6.43;4.65;;;20.50;67.80;;;;;;5079911;28;20036;-70
2021/04/22 07:33:10;;;;;;;5.82;4.45;;;20.50;67.70;;;;;;5081121;28;20017;-71
2021/04/22 07:35:38;;;;;;;5.68;4.15;;;20.50;67.70;;;;;;5083348;28;20059;-71
2021/04/22 07:38:06;;;;;;;6.85;5.10;;;20.50;67.60;;;;;;5079208;28;20487;-71
2021/04/22 07:40:33;;;;;;;6.18;4.90;;;20.60;67.70;;;;;;5082786;28;20028;-71
2021/04/22 07:43:00;;;;;;;7.97;4.28;;;20.60;67.70;;;;;;5081746;28;20372;-71
2021/04/22 07:45:33;;;;;;;6.60;4.47;;;20.60;67.50;;;;;;5081323;28;20078;-71
2021/04/22 07:48:00;;;;;;;5.78;4.45;;;20.60;67.50;;;;;;5081662;28;20046;-71
2021/04/22 07:50:27;;;;;;;7.88;5.57;;;20.60;67.40;;;;;;5080457;28;20529;-71
2021/04/22 07:52:54;;;;;;;5.93;4.88;;;20.70;67.40;;;;;;5078203;28;20385;-71
2021/04/22 07:55:27;;;;;;;7.10;4.97;;;20.60;67.30;;;;;;5080394;28;20043;-72
2021/04/22 07:57:55;;;;;;;8.02;4.80;;;20.70;67.30;;;;;;5083604;28;20032;-72
2021/04/22 08:00:22;;;;;;;7.53;4.07;;;20.70;67.10;;;;;;5079632;28;20036;-71
2021/04/22 08:02:49;;;;;;;7.60;4.97;;;20.70;67.00;;;;;;5078556;28;20013;-71
2021/04/22 08:05:17;;;;;;;7.70;5.20;;;20.70;67.00;;;;;;5081707;28;20016;-71
2021/04/22 08:07:44;;;;;;;8.60;5.22;;;20.70;66.90;;;;;;5078511;28;20432;-72
2021/04/22 08:10:19;;;;;;;8.13;6.25;;;20.70;66.80;;;;;;5083831;28;20020;-71
2021/04/22 08:12:47;;;;;;;7.10;5.93;;;20.80;66.70;;;;;;5079868;28;20560;-71
2021/04/22 08:15:16;;;;;;;9.07;5.93;;;20.80;66.70;;;;;;5085294;28;20094;-71
2021/04/22 08:17:43;;;;;;;10.85;6.43;;;20.80;66.70;;;;;;5082018;28;20707;-71
2021/04/22 08:20:16;;;;;;;9.40;6.88;;;20.90;66.90;;;;;;5081107;28;20463;-72
2021/04/22 08:22:43;;;;;;;9.52;5.88;;;20.90;66.90;;;;;;5081579;28;20789;-71
2021/04/22 08:25:18;;;;;;;9.02;6.45;;;20.90;66.90;;;;;;5078461;28;20017;-72
2021/04/22 08:27:46;;;;;;;13.18;6.85;;;20.90;66.90;;;;;;5079176;28;20036;-72
2021/04/22 08:30:14;;;;;;;9.88;5.55;;;21.00;66.90;;;;;;5078701;28;20060;-72
2021/04/22 08:32:41;;;;;;;8.80;5.13;;;21.00;66.70;;;;;;5068351;28;20039;-71
2021/04/22 08:35:09;;;;;;;7.35;4.95;;;21.00;66.50;;;;;;5076667;28;20785;-70
2021/04/22 08:37:36;;;;;;;6.35;4.80;;;21.00;66.40;;;;;;5079776;28;20054;-71
2021/04/22 08:40:09;;;;;;;8.60;5.20;;;21.00;66.20;;;;;;5080493;28;20028;-71
2021/04/22 08:42:36;;;;;;;7.55;4.55;;;21.10;66.00;;;;;;5079722;28;20103;-71
2021/04/22 08:45:05;;;;;;;6.63;4.18;;;21.10;65.90;;;;;;5079471;28;20024;-71
2021/04/22 08:47:32;;;;;;;6.13;4.63;;;21.10;65.60;;;;;;5079318;28;20063;-71
2021/04/22 08:49:59;;;;;;;5.88;3.88;;;21.10;65.40;;;;;;5080096;28;20211;-71
2021/04/22 08:52:25;;;;;;;5.13;4.03;;;21.10;65.10;;;;;;5080280;28;20027;-71
2021/04/22 08:54:52;;;;;;;6.15;3.17;;;21.20;64.80;;;;;;5078555;28;20528;-71
2021/04/22 08:57:21;;;;;;;3.90;2.28;;;21.20;64.50;;;;;;5079288;28;20398;-71
2021/04/22 08:59:52;;;;;;;3.63;2.53;;;21.20;64.30;;;;;;5081317;28;20823;-70
2021/04/22 09:02:20;;;;;;;3.42;2.78;;;21.30;64.00;;;;;;5079446;28;20052;-71
2021/04/22 09:04:48;;;;;;;2.47;2.03;;;21.30;63.60;;;;;;5079254;28;20505;-71
2021/04/22 09:07:15;;;;;;;3.92;2.40;;;21.30;63.40;;;;;;5079982;28;20477;-71
2021/04/22 09:09:43;;;;;;;2.92;2.50;;;21.40;63.10;;;;;;5082387;28;20495;-71
2021/04/22 09:12:18;;;;;;;4.20;2.83;;;21.40;63.00;;;;;;5078217;28;20061;-71
2021/04/22 09:14:51;;;;;;;;;;;21.40;62.80;;;;;;5083821;28;20027;-71
2021/04/22 09:17:19;;;;;;;4.03;2.53;;;21.40;62.70;;;;;;5078758;28;19915;-71
2021/04/22 09:19:46;;;;;;;5.88;2.80;;;21.50;62.50;;;;;;5059911;28;20392;-71
2021/04/22 09:22:13;;;;;;;3.70;3.08;;;21.50;62.30;;;;;;5080620;28;20035;-71
2021/04/22 09:24:40;;;;;;;6.80;3.65;;;21.60;62.20;;;;;;5079564;28;20123;-71
2021/04/22 09:27:15;;;;;;;6.07;3.90;;;21.60;62.00;;;;;;5080701;28;20047;-71
2021/04/22 09:29:46;;;;;;;;;;;21.60;61.70;;;;;;5078741;28;20039;-71
2021/04/22 09:32:14;;;;;;;3.47;2.80;;;21.60;61.60;;;;;;5083788;28;20325;-71
2021/04/22 09:34:51;;;;;;;3.60;2.72;;;21.70;61.30;;;;;;5078071;28;20032;-69
2021/04/22 09:37:20;;;;;;;3.95;3.35;;;21.70;61.30;;;;;;5079808;28;20540;-70
2021/04/22 09:39:48;;;;;;;4.38;2.95;;;21.80;61.30;;;;;;5078824;28;20115;-68
2021/04/22 09:42:21;;;;;;;5.15;3.03;;;21.80;61.30;;;;;;5079518;28;20024;-71
2021/04/22 09:44:48;;;;;;;4.28;2.70;;;21.80;61.20;;;;;;5078000;28;20749;-70
2021/04/22 09:47:22;;;;;;;3.10;2.17;;;21.90;61.10;;;;;;5066833;28;20032;-68
2021/04/22 09:49:55;;;;;;;4.60;1.30;;;21.90;61.50;;;;;;5077804;28;20063;-69
2021/04/22 09:52:22;;;;;;;4.25;1.80;;;21.90;60.60;;;;;;5076607;28;20491;-69
2021/04/22 09:54:51;;;;;;;3.05;1.42;;;21.90;60.40;;;;;;5079810;28;20125;-70
2021/04/22 09:57:35;;;;;;;5.70;2.05;;;22.00;60.30;;;;;;5078017;28;20027;-71
2021/04/22 10:00:27;;;;;;;4.53;1.98;;;22.00;60.20;;;;;;5080732;28;20020;-72
2021/04/22 10:03:09;;;;;;;2.95;2.08;;;22.00;60.10;;;;;;5079859;28;20012;-71
2021/04/22 10:05:38;;;;;;;6.82;2.25;;;22.00;59.90;;;;;;5078774;28;20028;-69
2021/04/22 10:08:14;;;;;;;2.50;2.05;;;22.00;59.80;;;;;;5078639;28;20032;-71
2021/04/22 10:11:03;;;;;;;3.97;1.80;;;22.10;59.80;;;;;;5081392;28;20028;-71
2021/04/22 10:13:41;;;;;;;3.72;1.60;;;22.00;59.60;;;;;;5072320;28;20559;-70
2021/04/22 10:16:08;;;;;;;2.47;1.92;;;22.00;59.60;;;;;;5085232;28;20016;-71
2021/04/22 10:18:43;;;;;;;4.60;1.90;;;22.00;59.50;;;;;;5082604;28;20024;-71
2021/04/22 10:21:11;;;;;;;2.80;1.73;;;22.10;59.50;;;;;;5081737;28;20028;-71
2021/04/22 10:23:39;;;;;;;2.80;1.88;;;22.00;59.50;;;;;;5084703;28;20027;-71
2021/04/22 10:26:16;;;;;;;9.52;1.73;;;22.10;59.40;;;;;;5083046;28;20052;-71
2021/04/22 10:28:42;;;;;;;4.57;2.10;;;22.10;59.50;;;;;;5081467;28;20040;-71
2021/04/22 10:31:09;;;;;;;3.08;1.60;;;22.10;59.50;;;;;;5083651;28;20040;-71
2021/04/22 10:33:35;;;;;;;4.22;1.63;;;22.10;59.60;;;;;;5083603;28;20032;-71
2021/04/22 10:36:02;;;;;;;4.97;2.40;;;22.10;59.50;;;;;;5083741;28;20012;-71
2021/04/22 10:38:30;;;;;;;5.55;2.40;;;22.10;59.50;;;;;;5082829;28;20016;-70
2021/04/22 10:40:58;;;;;;;5.05;2.80;;;22.10;59.40;;;;;;5084508;28;20020;-70
2021/04/22 10:43:28;;;;;;;3.05;2.67;;;22.20;59.40;;;;;;5081092;28;20023;-71
2021/04/22 10:45:56;;;;;;;4.55;2.63;;;22.20;59.40;;;;;;5082875;28;20451;-70
2021/04/22 10:48:23;;;;;;;3.83;2.92;;;22.30;59.40;;;;;;5078234;28;20502;-72
2021/04/22 10:50:53;;;;;;;3.25;2.53;;;22.30;59.30;;;;;;5081423;28;20051;-71
2021/04/22 10:53:22;;;;;;;4.60;2.78;;;22.40;59.30;;;;;;5080104;28;20024;-71
2021/04/22 10:55:51;;;;;;;4.22;2.65;;;22.40;59.20;;;;;;5081343;28;20024;-71
2021/04/22 10:58:20;;;;;;;4.07;2.45;;;22.50;59.10;;;;;;5085334;28;20012;-68
2021/04/22 11:01:05;;;;;;;5.75;3.25;;;22.50;59.00;;;;;;5080234;28;20024;-69
2021/04/22 11:03:39;;;;;;;4.43;2.28;;;22.50;58.90;;;;;;5081824;28;20024;-69
2021/04/22 11:06:11;;;;;;;3.83;2.22;;;22.60;58.80;;;;;;5081235;28;20382;-69
2021/04/22 11:08:41;;;;;;;3.85;2.22;;;22.60;58.70;;;;;;5085304;28;20399;-69
2021/04/22 11:11:28;;;;;;;3.47;1.90;;;22.70;58.70;;;;;;5083711;28;20490;-69
2021/04/22 11:14:09;;;;;;;3.05;2.00;;;22.70;58.60;;;;;;5079155;28;20028;-69
2021/04/22 11:16:42;;;;;;;3.45;2.30;;;22.80;58.50;;;;;;5083184;28;20023;-68
2021/04/22 11:19:30;;;;;;;3.63;2.10;;;22.80;58.40;;;;;;5081903;28;20016;-68
2021/04/22 11:21:58;;;;;;;3.15;1.83;;;22.80;58.20;;;;;;5080609;28;20486;-69
2021/04/22 11:24:34;;;;;;;2.45;2.10;;;22.90;58.10;;;;;;5079177;28;20021;-69
2021/04/22 11:27:03;;;;;;;2.42;1.92;;;22.90;58.00;;;;;;5081408;28;20031;-67
2021/04/22 11:29:48;;;;;;;3.03;2.10;;;23.00;58.00;;;;;;5081003;28;20549;-67
2021/04/22 11:32:22;;;;;;;4.45;1.98;;;23.00;58.00;;;;;;5083488;28;20031;-70
2021/04/22 11:34:50;;;;;;;2.58;2.38;;;23.00;57.90;;;;;;5083074;28;20013;-67
2021/04/22 11:37:31;;;;;;;3.47;3.00;;;23.00;57.90;;;;;;5080878;28;20035;-70
2021/04/22 11:39:58;;;;;;;5.15;3.63;;;23.10;57.80;;;;;;5080134;28;20091;-67
2021/04/22 11:42:25;;;;;;;9.75;3.50;;;23.10;57.60;;;;;;5083824;28;20526;-67
2021/04/22 11:44:53;;;;;;;3.97;3.28;;;23.20;57.60;;;;;;5082634;28;20445;-67
2021/04/22 11:47:22;;;;;;;6.93;4.47;;;23.20;57.60;;;;;;5080622;28;20043;-67
2021/04/22 11:50:02;;;;;;;5.68;3.42;;;23.20;57.50;;;;;;5081603;28;20034;-69
2021/04/22 11:52:39;;;;;;;4.43;2.85;;;23.30;57.40;;;;;;5079996;28;20102;-71
2021/04/22 11:55:23;;;;;;;2.92;2.72;;;23.30;57.30;;;;;;5083090;28;20024;-68
2021/04/22 11:58:04;;;;;;;5.22;2.35;;;23.30;57.20;;;;;;5080344;28;20029;-69
2021/04/22 12:00:36;;;;;;;4.40;2.95;;;23.30;57.00;;;;;;5080471;28;20127;-70
2021/04/22 12:03:03;;;;;;;4.00;2.63;;;23.30;56.80;;;;;;5079878;28;20098;-72
2021/04/22 12:05:30;;;;;;;3.50;2.97;;;23.30;56.70;;;;;;5081545;28;20361;-69
2021/04/22 12:08:05;;;;;;;3.75;2.20;;;23.40;56.70;;;;;;5083032;28;20505;-69
2021/04/22 12:10:34;;;;;;;3.05;2.50;;;23.40;56.70;;;;;;5079874;28;20028;-69
2021/04/22 12:13:13;;;;;;;4.07;2.75;;;23.40;56.60;;;;;;5080635;28;20035;-68
2021/04/22 12:15:48;;;;;;;3.33;1.50;;;23.40;56.70;;;;;;5081263;28;20118;-71
2021/04/22 12:18:25;;;;;;;2.10;1.85;;;23.40;56.70;;;;;;5082748;28;20059;-69
2021/04/22 12:20:55;;;;;;;2.75;2.13;;;23.50;56.70;;;;;;5082041;28;20027;-69
2021/04/22 12:23:31;;;;;;;1.83;1.65;;;23.50;56.60;;;;;;5077990;28;20096;-69
2021/04/22 12:26:11;;;;;;;2.65;1.90;;;23.50;56.60;;;;;;5080686;28;20570;-71
2021/04/22 12:28:37;;;;;;;2.20;1.90;;;23.50;56.50;;;;;;5080397;28;20102;-70
2021/04/22 12:31:04;;;;;;;3.65;1.70;;;23.50;56.50;;;;;;5081167;28;20127;-69
2021/04/22 12:33:31;;;;;;;2.90;1.77;;;23.50;56.50;;;;;;5080066;28;20023;-69
2021/04/22 12:36:00;;;;;;;3.45;2.00;;;23.50;56.30;;;;;;5082248;28;20354;-69
2021/04/22 12:38:30;;;;;;;3.20;2.00;;;23.60;56.40;;;;;;5082226;28;20437;-73
2021/04/22 12:41:01;;;;;;;2.13;1.85;;;23.60;56.40;;;;;;5079946;28;20068;-70
2021/04/22 12:43:30;;;;;;;2.40;1.70;;;23.60;56.40;;;;;;5080482;28;20020;-70
2021/04/22 12:46:15;;;;;;;4.53;1.88;;;23.60;56.40;;;;;;5079911;28;20093;-70
2021/04/22 12:48:51;;;;;;;1.77;1.63;;;23.60;56.20;;;;;;5076154;28;20483;-73
2021/04/22 12:51:18;;;;;;;2.58;2.38;;;23.60;55.90;;;;;;5082822;28;20539;-70
2021/04/22 12:53:47;;;;;;;3.15;2.20;;;23.60;55.80;;;;;;5081115;28;20505;-70